Time;durP1;ratioP1;P1;durP2;ratioP2;P2;SDS_P1;SDS_P2;PMS_P1;PMS_P2;Temp;Humidity;BMP_temperature;BMP_pressure;BME280_temperature;BME280_humidity;BME280_pressure;Samples;Min_cycle;Max_cycle;Signal;HPM_P1;HPM_P2
2023/08/01 00:02:42;;;;;;;4.00;2.90;;;;;;;19.56;62.80;99262.91;128850;1273;128030;-67
2023/08/01 00:06:35;;;;;;;3.60;2.70;;;;;;;19.55;62.92;99260.10;127755;1286;115446;-67
2023/08/01 00:10:37;;;;;;;4.40;3.00;;;;;;;19.54;63.02;99252.77;123010;1300;5446780;-66
2023/08/01 00:14:38;;;;;;;8.40;2.80;;;;;;;19.54;63.16;99246.07;125568;1301;115093;-66
2023/08/01 00:18:40;;;;;;;5.00;2.60;;;;;;;19.53;63.36;99242.36;124989;1311;114968;-67
2023/08/01 00:27:12;;;;;;;;;;;;;;;;;;;;;
2023/08/01 00:31:16;;;;;;;4.40;2.80;;;;;;;19.50;63.46;99229.48;128972;1277;129001;-67
2023/08/01 00:39:11;;;;;;;4.30;2.50;;;;;;;19.42;63.50;99210.96;122683;1295;5508476;-66
2023/08/01 00:43:05;;;;;;;;;;;;;;;;;;;;;
2023/08/01 00:50:59;;;;;;;5.30;3.10;;;;;;;19.25;63.74;99193.45;124318;1310;114850;-65
2023/08/01 00:54:53;;;;;;;5.90;2.60;;;;;;;19.19;63.92;99188.65;123824;1319;127532;-67
2023/08/01 01:03:17;;;;;;;3.90;2.60;;;;;;;19.12;64.12;99178.88;127393;1289;635274;-66
2023/08/01 01:07:20;;;;;;;3.40;2.60;;;;;;;19.06;64.34;99175.70;128869;1286;128076;-67
2023/08/01 01:11:23;;;;;;;7.30;2.80;;;;;;;19.00;64.40;99162.39;128970;1286;116375;-67
2023/08/01 01:15:26;;;;;;;6.40;2.70;;;;;;;18.94;64.51;99155.89;124753;1294;5510988;-66
2023/08/01 01:19:29;;;;;;;4.90;2.30;;;;;;;18.91;64.68;99150.49;127575;1285;116345;-66
2023/08/01 01:23:36;;;;;;;9.70;2.50;;;;;;;18.89;64.79;99141.39;126956;1310;115034;-67
2023/08/01 01:27:39;;;;;;;5.90;3.30;;;;;;;18.88;64.83;99133.45;126205;1298;130406;-67
2023/08/01 01:31:40;;;;;;;4.10;2.70;;;;;;;18.86;65.07;99127.50;125910;1301;115278;-67
2023/08/01 01:35:41;;;;;;;5.70;2.50;;;;;;;18.83;65.12;99126.66;124923;1308;115182;-67
2023/08/01 01:47:57;;;;;;;4.10;2.90;;;;;;;18.63;65.43;99110.61;128724;1281;128851;-66
2023/08/01 01:52:00;;;;;;;3.80;2.90;;;;;;;18.55;65.68;99103.84;127292;1289;115323;-66
2023/08/01 01:55:50;;;;;;;5.40;2.60;;;;;;;18.47;65.73;99096.71;121872;1297;5512428;-66
2023/08/01 01:59:51;;;;;;;5.20;3.00;;;;;;;18.39;65.84;99089.20;125060;1309;114918;-66
2023/08/01 02:03:54;;;;;;;5.40;2.90;;;;;;;18.33;66.09;99087.96;124533;1310;114997;-67
2023/08/01 02:12:21;;;;;;;4.20;2.40;;;;;;;18.28;66.47;99075.71;126261;1298;636560;-68
2023/08/01 02:16:23;;;;;;;3.70;3.00;;;;;;;18.24;66.48;99071.17;128468;1276;127959;-66
2023/08/01 02:28:14;;;;;;;4.60;2.40;;;;;;;18.23;66.75;99062.27;126236;1298;114840;-66
2023/08/01 02:32:16;;;;;;;3.90;3.00;;;;;;;18.23;66.94;99062.80;126173;1302;114935;-66
2023/08/01 02:36:17;;;;;;;5.00;2.50;;;;;;;18.22;67.11;99056.14;125539;1304;114926;-66
2023/08/01 02:40:12;;;;;;;5.10;3.00;;;;;;;18.22;67.16;99053.66;125067;1308;127860;-66
2023/08/01 02:48:35;;;;;;;6.40;3.60;;;;;;;18.24;67.66;99042.38;126196;1308;636030;-66
2023/08/01 02:52:36;;;;;;;;;;;;;;;;;;;;;
2023/08/01 02:56:41;;;;;;;3.80;2.60;;;;;;;18.23;68.22;99035.81;129000;1275;115270;-65
2023/08/01 03:00:43;;;;;;;6.70;3.00;;;;;;;18.22;68.51;99033.75;124753;1276;5498312;-68
2023/08/01 03:04:52;;;;;;;3.60;2.60;;;;;;;18.21;68.79;99031.84;127907;1299;114822;-69
2023/08/01 03:08:53;;;;;;;5.30;2.70;;;;;;;18.21;69.51;99024.09;126813;1300;114899;-68
2023/08/01 03:12:55;;;;;;;6.10;2.80;;;;;;;18.21;70.02;99021.38;126884;1308;114951;-67
2023/08/01 03:16:56;;;;;;;5.70;3.30;;;;;;;18.20;70.52;99018.99;125953;1300;129750;-67
2023/08/01 03:29:23;;;;;;;4.40;3.20;;;;;;;18.12;71.41;99006.05;126330;1298;635612;-79
2023/08/01 03:33:18;;;;;;;7.30;3.80;;;;;;;18.09;71.86;99007.69;127779;1303;128981;-80
2023/08/01 03:37:21;;;;;;;4.80;3.20;;;;;;;18.05;71.67;98999.70;126931;1309;114927;-80
2023/08/01 03:41:28;;;;;;;6.10;3.00;;;;;;;18.01;71.52;98996.71;122934;1287;5585531;-83
2023/08/01 03:45:32;;;;;;;6.90;3.40;;;;;;;17.98;71.58;98989.20;126440;1297;114859;-83
2023/08/01 03:49:33;;;;;;;4.50;3.30;;;;;;;17.96;71.34;98981.23;125805;1301;114991;-83
2023/08/01 04:01:57;;;;;;;3.10;2.60;;;;;;;18.00;71.72;98974.72;125896;1299;638670;-72
2023/08/01 04:06:00;;;;;;;6.50;3.10;;;;;;;18.04;71.94;98979.97;127849;1283;128046;-71
2023/08/01 04:09:07;;;;;;;5.40;3.60;;;;;;;18.06;71.99;98980.50;126887;1312;115221;-82
2023/08/01 04:13:35;;;;;;;7.70;3.70;;;;;;;18.08;72.09;98979.16;126817;1293;115157;-80
2023/08/01 04:17:12;;;;;;;7.00;3.30;;;;;;;18.11;72.07;98976.75;122123;1296;115496;-80
2023/08/01 04:21:07;;;;;;;5.10;3.00;;;;;;;18.13;72.10;98982.51;125279;1321;114834;-82
2023/08/01 04:25:09;;;;;;;10.00;3.30;;;;;;;18.13;72.20;98981.36;125330;1327;114898;-82
2023/08/01 04:33:44;;;;;;;5.60;3.40;;;;;;;18.19;72.74;98984.70;125717;1301;637550;-79
2023/08/01 04:37:46;;;;;;;8.00;4.00;;;;;;;18.18;72.87;98982.34;127570;1306;128646;-76
2023/08/01 04:41:49;;;;;;;8.40;3.50;;;;;;;18.16;72.93;98978.94;127526;1289;115223;-76
2023/08/01 04:45:52;;;;;;;8.70;3.90;;;;;;;18.16;73.33;98977.69;122590;1298;5449018;-78
2023/08/01 04:49:45;;;;;;;;;;;;;;;;;;;;;
2023/08/01 04:58:00;;;;;;;;;;;;;;;;;;;;;
2023/08/01 05:02:02;;;;;;;7.10;4.40;;;;;;;18.10;74.23;98957.51;128648;1292;128840;-74
2023/08/01 05:06:05;;;;;;;7.90;3.90;;;;;;;18.09;74.40;98958.67;128830;1273;115381;-70
2023/08/01 05:10:08;;;;;;;5.00;3.50;;;;;;;18.02;74.61;98957.20;124432;1281;5434154;-80
2023/08/01 05:14:10;;;;;;;7.60;4.50;;;;;;;17.98;74.81;98956.20;127782;1285;114868;-80
2023/08/01 05:18:06;;;;;;;;;;;;;;;;;;;;;
2023/08/01 05:22:13;;;;;;;9.90;4.40;;;;;;;17.96;75.44;98950.61;125992;1301;114898;-79
2023/08/01 05:30:35;;;;;;;;;;;;;;;;;;;;;
2023/08/01 05:34:39;;;;;;;5.80;3.90;;;;;;;18.00;76.10;98943.87;128913;1273;127008;-75
2023/08/01 05:38:46;;;;;;;5.30;3.80;;;;;;;18.00;76.25;98933.37;126942;1295;116531;-76
2023/08/01 05:42:47;;;;;;;4.80;2.90;;;;;;;18.00;76.50;98937.56;122235;1299;5456356;-77
2023/08/01 05:46:49;;;;;;;7.00;4.40;;;;;;;17.98;76.87;98939.91;124597;1332;114830;-68
2023/08/01 05:55:16;;;;;;;9.10;4.10;;;;;;;18.07;77.38;98938.05;126233;1296;636028;-78
2023/08/01 05:59:19;;;;;;;6.20;4.20;;;;;;;18.10;77.54;98932.39;128336;1291;128277;-80
2023/08/01 06:03:21;;;;;;;9.60;4.60;;;;;;;18.13;77.77;98934.77;128070;1284;115226;-73
2023/08/01 06:11:14;;;;;;;;;;;;;;;;;;;;;
2023/08/01 06:15:16;;;;;;;7.30;4.10;;;;;;;18.15;78.40;98928.94;126061;1301;114835;-74
2023/08/01 06:19:17;;;;;;;6.60;4.50;;;;;;;18.20;78.56;98924.96;125226;1308;114988;-79
2023/08/01 06:31:54;;;;;;;6.80;4.50;;;;;;;18.40;78.91;98912.98;128782;1296;127537;-78
2023/08/01 06:35:47;;;;;;;8.50;4.90;;;;;;;18.44;79.10;98912.17;128832;1278;115398;-73
2023/08/01 06:39:49;;;;;;;6.80;4.40;;;;;;;18.52;79.32;98909.52;124120;1281;5420080;-73
2023/08/01 06:47:58;;;;;;;8.20;4.70;;;;;;;18.68;79.22;98898.10;125709;1299;114911;-81
2023/08/01 06:51:58;;;;;;;7.30;4.10;;;;;;;18.72;79.03;98888.54;124184;1316;114913;-81
2023/08/01 07:00:14;;;;;;;;;;;;;;;;;;;;;
2023/08/01 07:04:11;;;;;;;8.90;4.10;;;;;;;18.66;79.07;98877.03;128567;1278;127593;-79
2023/08/01 07:08:14;;;;;;;12.20;4.80;;;;;;;18.65;79.29;98872.77;128041;1302;114981;-81
2023/08/01 07:12:16;;;;;;;9.40;5.10;;;;;;;18.63;79.25;98870.08;123892;1281;5463561;-78
2023/08/01 07:16:15;;;;;;;;;;;;;;;;;;;;;
2023/08/01 07:20:17;;;;;;;5.40;4.50;;;;;;;18.55;79.55;98876.40;126656;1296;114950;-72
2023/08/01 07:28:26;;;;;;;7.30;4.80;;;;;;;18.65;79.85;98865.33;126403;1294;637698;-80
2023/08/01 07:32:28;;;;;;;6.80;4.00;;;;;;;18.72;80.20;98865.73;127949;1283;128745;-74
2023/08/01 07:36:36;;;;;;;5.80;4.30;;;;;;;18.76;80.14;98860.93;126517;1303;116623;-77
2023/08/01 07:40:26;;;;;;;4.60;4.00;;;;;;;18.78;79.96;98853.84;121490;1325;5428146;-77
2023/08/01 07:48:32;;;;;;;;;;;;;;;;;;;;;
2023/08/01 07:52:34;;;;;;;;;;;;;;;;;;;;;
2023/08/01 07:56:27;;;;;;;7.00;4.80;;;;;;;19.38;80.63;98826.41;128128;1283;115262;-70
2023/08/01 08:00:28;;;;;;;6.00;4.10;;;;;;;19.59;80.27;98833.33;124114;1277;5500058;-74
2023/08/01 08:04:14;;;;;;;8.90;5.00;;;;;;;19.87;80.34;98828.25;127869;1285;115144;-78
2023/08/01 08:08:16;;;;;;;10.20;4.40;;;;;;;20.14;79.94;98823.82;127541;1287;115642;-73
2023/08/01 08:11:58;;;;;;;;;;;;;;;;;;;;;
2023/08/01 08:16:04;;;;;;;9.20;4.00;;;;;;;20.64;78.83;98813.06;126944;1289;116449;-78
2023/08/01 08:20:03;;;;;;;6.30;3.90;;;;;;;20.82;78.06;98809.92;126191;1298;114912;-72
2023/08/01 08:24:05;;;;;;;7.20;4.00;;;;;;;20.95;77.94;98802.81;125638;1305;114894;-71
2023/08/01 08:27:48;;;;;;;5.70;3.70;;;;;;;21.13;77.65;98792.67;124935;1326;115243;-77
2023/08/01 08:31:50;;;;;;;8.30;4.60;;;;;;;21.34;77.55;98786.44;125282;1308;129958;-77
2023/08/01 08:35:50;;;;;;;5.30;4.60;;;;;;;21.58;77.00;98781.77;124845;1321;114996;-77
2023/08/01 08:39:50;;;;;;;;;;;;;;;;;;;;;
2023/08/01 08:48:09;;;;;;;5.40;3.80;;;;;;;21.76;75.75;98762.02;128765;1273;129227;-74
2023/08/01 08:52:11;;;;;;;7.30;4.50;;;;;;;21.76;75.64;98768.11;128061;1301;115281;-71
2023/08/01 09:00:15;;;;;;;10.90;3.90;;;;;;;21.73;74.91;98779.13;125578;1323;115169;-73
2023/08/01 09:16:50;;;;;;;7.50;3.90;;;;;;;21.98;74.99;98756.93;126948;1292;115496;-71
2023/08/01 09:21:04;;;;;;;6.40;4.00;;;;;;;22.09;74.91;98756.75;122453;1295;5451233;-68
2023/08/01 09:25:15;;;;;;;7.20;3.70;;;;;;;22.15;74.41;98758.98;125446;1307;114832;-70
2023/08/01 09:37:28;;;;;;;;;;;;;;;;;;;;;
2023/08/01 09:49:54;;;;;;;7.90;4.10;;;;;;;22.09;73.61;98749.45;122928;1288;5600176;-75
2023/08/01 09:53:54;;;;;;;7.80;4.10;;;;;;;22.05;73.56;98743.77;125773;1302;114935;-72
2023/08/01 10:02:20;;;;;;;8.70;4.60;;;;;;;22.09;73.26;98722.00;126327;1295;635407;-71
2023/08/01 10:06:23;;;;;;;7.50;3.50;;;;;;;22.10;73.45;98724.02;127843;1282;128969;-72
2023/08/01 10:10:31;;;;;;;6.60;3.80;;;;;;;22.15;73.73;98724.85;126840;1300;115269;-76
2023/08/01 10:14:33;;;;;;;6.30;4.20;;;;;;;22.17;73.16;98717.71;121944;1302;5456094;-70
2023/08/01 10:18:32;;;;;;;;;;;;;;;;;;;;;
2023/08/01 10:26:59;;;;;;;8.50;3.70;;;;;;;22.19;72.89;98701.83;126319;1296;637622;-73
2023/08/01 10:30:54;;;;;;;;;;;;;;;;;;;;;
2023/08/01 10:35:08;;;;;;;6.40;3.70;;;;;;;22.12;72.57;98695.05;128438;1276;115270;-75
2023/08/01 10:39:10;;;;;;;7.40;3.50;;;;;;;22.10;72.23;98693.33;124191;1283;5458961;-71
2023/08/01 10:43:21;;;;;;;6.60;3.90;;;;;;;22.04;72.29;98688.45;126602;1295;114875;-76
2023/08/01 10:47:34;;;;;;;6.50;3.30;;;;;;;21.99;72.17;98682.66;126773;1292;114786;-74
2023/08/01 10:55:39;;;;;;;4.90;3.30;;;;;;;21.80;71.86;98679.55;126934;1291;115260;-71
2023/08/01 10:59:45;;;;;;;5.30;3.10;;;;;;;21.75;72.34;98690.30;126721;1292;114868;-73
2023/08/01 11:03:40;;;;;;;6.00;3.80;;;;;;;21.70;72.56;98688.14;126370;1315;114888;-74
2023/08/01 11:07:44;;;;;;;9.10;3.80;;;;;;;21.64;72.68;98685.85;125957;1295;114825;-70
2023/08/01 11:11:45;;;;;;;6.00;3.80;;;;;;;21.53;72.70;98685.11;126088;1301;130888;-71
2023/08/01 11:23:55;;;;;;;9.10;3.60;;;;;;;21.33;73.35;98672.52;126172;1317;115253;-72
2023/08/01 11:32:14;;;;;;;;;;;;;;;;;;;;;
2023/08/01 11:40:24;;;;;;;7.80;3.40;;;;;;;21.22;73.22;98640.05;129232;1289;114883;-71
2023/08/01 11:44:30;;;;;;;6.20;2.80;;;;;;;21.30;73.40;98648.73;124225;1282;5426629;-71
2023/08/01 11:48:30;;;;;;;;;;;;;;;;;;;;;
2023/08/01 11:52:24;;;;;;;;;;;;;;;;;;;;;
2023/08/01 12:00:57;;;;;;;3.30;2.80;;;;;;;21.96;72.58;98620.48;126359;1295;639296;-69
2023/08/01 12:13:14;;;;;;;5.20;2.80;;;;;;;22.65;72.05;98617.50;122307;1312;5469918;-72
2023/08/01 12:17:14;;;;;;;;;;;;;;;;;;;;;
2023/08/01 12:25:50;;;;;;;4.00;2.80;;;;;;;23.49;70.91;98583.42;125876;1301;639460;-71
2023/08/01 12:30:17;;;;;;;3.60;2.70;;;;;;;23.87;69.89;98587.84;128205;1278;128630;-70
2023/08/01 12:33:55;;;;;;;3.50;2.60;;;;;;;24.10;68.99;98577.67;127230;1289;115269;-69
2023/08/01 12:37:56;;;;;;;3.00;2.40;;;;;;;24.30;67.88;98578.96;122289;1299;5415559;-71
2023/08/01 12:46:39;;;;;;;4.70;2.60;;;;;;;24.64;66.70;98575.16;126063;1300;636482;-75
2023/08/01 12:50:22;;;;;;;3.40;2.40;;;;;;;24.81;65.42;98584.27;128891;1285;129294;-75
2023/08/01 12:54:25;;;;;;;4.60;2.00;;;;;;;24.96;64.98;98581.48;128188;1290;115374;-67
2023/08/01 12:58:27;;;;;;;4.10;1.90;;;;;;;25.03;63.41;98581.70;124130;1282;5494250;-74
2023/08/01 13:06:36;;;;;;;2.30;2.10;;;;;;;25.24;62.61;98573.95;125740;1319;114923;-68
2023/08/01 13:10:37;;;;;;;3.00;1.80;;;;;;;25.30;61.85;98576.20;125078;1308;120387;-71
2023/08/01 13:19:03;;;;;;;2.20;2.00;;;;;;;25.49;61.20;98558.77;125983;1301;637046;-76
2023/08/01 13:23:08;;;;;;;2.30;2.10;;;;;;;25.56;60.69;98565.99;128160;1284;121107;-76
2023/08/01 13:27:09;;;;;;;3.80;2.10;;;;;;;25.73;60.31;98561.18;126729;1303;115225;-71
2023/08/01 13:47:37;;;;;;;3.10;2.10;;;;;;;26.13;58.46;98553.90;128623;1278;120980;-77
2023/08/01 13:55:36;;;;;;;2.70;1.90;;;;;;;26.35;57.23;98558.46;123949;1283;5437019;-75
2023/08/01 14:07:43;;;;;;;3.40;2.70;;;;;;;26.91;56.72;98560.67;125303;1306;114945;-72
2023/08/01 14:16:12;;;;;;;1.90;1.70;;;;;;;27.09;55.55;98571.61;125843;1309;638599;-75
2023/08/01 14:20:15;;;;;;;3.60;1.70;;;;;;;26.92;54.81;98572.92;128441;1275;128511;-67
2023/08/01 14:24:10;;;;;;;5.30;1.90;;;;;;;26.69;54.22;98571.56;128368;1278;114791;-69
2023/08/01 14:28:17;;;;;;;2.30;1.90;;;;;;;26.40;53.93;98577.47;124381;1278;5437181;-67
2023/08/01 14:32:19;;;;;;;2.90;2.20;;;;;;;26.05;53.65;98582.77;127923;1279;114968;-70
2023/08/01 14:36:20;;;;;;;3.30;1.90;;;;;;;25.71;54.05;98582.17;127908;1285;115000;-76
2023/08/01 14:40:21;;;;;;;2.80;1.70;;;;;;;25.44;54.23;98590.05;127333;1289;114867;-69
2023/08/01 14:52:50;;;;;;;3.50;1.80;;;;;;;24.96;54.84;98587.22;126255;1297;638802;-79
2023/08/01 15:01:01;;;;;;;2.70;2.20;;;;;;;24.96;54.63;98606.63;126960;1287;114828;-73
2023/08/01 15:05:09;;;;;;;2.30;2.10;;;;;;;24.99;54.81;98604.21;122541;1296;5491321;-68
2023/08/01 15:13:13;;;;;;;4.20;1.80;;;;;;;24.94;54.86;98612.40;124925;1308;114909;-67
2023/08/01 15:21:39;;;;;;;3.40;3.00;;;;;;;24.87;54.45;98629.33;126408;1305;636977;-67
2023/08/01 15:29:45;;;;;;;3.20;2.80;;;;;;;24.77;54.51;98636.54;126985;1290;114928;-74
2023/08/01 15:37:21;;;;;;;2.60;2.40;;;;;;;24.80;54.59;98643.16;126235;1314;115038;-69
2023/08/01 15:41:23;;;;;;;4.70;2.30;;;;;;;24.79;54.66;98646.91;126157;1306;115107;-69
2023/08/01 15:45:24;;;;;;;2.20;2.00;;;;;;;24.71;54.31;98652.99;125105;1309;115080;-69
2023/08/01 15:53:51;;;;;;;2.40;1.90;;;;;;;24.58;54.35;98644.12;126105;1300;635419;-69
2023/08/01 15:57:54;;;;;;;2.70;1.80;;;;;;;24.47;54.37;98648.83;128751;1278;130275;-70
2023/08/01 16:14:02;;;;;;;2.40;2.00;;;;;;;24.05;55.06;98655.77;124587;1331;114866;-72
2023/08/01 16:18:04;;;;;;;3.20;2.20;;;;;;;23.91;54.98;98640.61;123983;1318;114907;-70
2023/08/01 16:34:36;;;;;;;6.90;2.60;;;;;;;23.48;55.73;98645.66;128633;1289;114950;-69
2023/08/01 16:42:37;;;;;;;7.70;5.20;;;;;;;23.27;56.29;98661.41;126272;1297;114759;-68
2023/08/01 16:46:38;;;;;;;3.90;3.10;;;;;;;23.18;56.33;98669.85;125723;1303;114846;-70
2023/08/01 16:50:40;;;;;;;3.50;2.80;;;;;;;23.08;56.56;98680.02;125076;1311;115011;-77
2023/08/01 16:54:41;;;;;;;4.80;1.50;;;;;;;22.93;56.66;98740.83;123946;1319;126858;-79
2023/08/01 17:03:07;;;;;;;2.80;1.00;;;;;;;22.23;56.40;98758.73;126010;1300;637837;-69
2023/08/01 17:07:09;;;;;;;3.70;1.40;;;;;;;21.80;58.36;98756.23;127620;1286;129003;-67
2023/08/01 17:11:17;;;;;;;2.80;1.10;;;;;;;21.43;59.49;98765.42;128390;1289;115224;-70
2023/08/01 17:15:25;;;;;;;1.60;0.90;;;;;;;21.03;60.54;98774.06;123534;1286;5505139;-70
2023/08/01 17:19:26;;;;;;;2.70;1.20;;;;;;;20.73;61.65;98774.45;126567;1310;114758;-70
2023/08/01 17:27:55;;;;;;;5.30;1.10;;;;;;;20.24;63.04;98763.77;126312;1296;636016;-68
2023/08/01 17:31:59;;;;;;;6.40;1.30;;;;;;;20.00;64.09;98769.59;127713;1287;129295;-70
2023/08/01 17:36:07;;;;;;;4.50;1.40;;;;;;;19.76;65.22;98782.73;126604;1295;115686;-69
2023/08/01 17:39:52;;;;;;;10.20;1.60;;;;;;;19.56;65.78;98783.84;121566;1308;5458103;-68
2023/08/01 17:43:50;;;;;;;;;;;;;;;;;;;;;
2023/08/01 17:47:53;;;;;;;6.80;3.60;;;;;;;19.28;67.01;98774.45;125102;1305;115035;-68
2023/08/01 17:55:45;;;;;;;2.40;1.70;;;;;;;19.07;68.15;98774.78;126653;1295;636183;-68
2023/08/01 17:59:38;;;;;;;;;;;;;;;;;;;;;
2023/08/01 18:03:34;;;;;;;;;;;;;;;;;;;;;
2023/08/01 18:11:43;;;;;;;1.50;1.30;;;;;;;19.01;70.74;98788.27;122127;1299;114827;-67
2023/08/01 18:15:45;;;;;;;4.30;2.20;;;;;;;18.99;70.77;98790.86;125563;1320;115031;-64
2023/08/01 18:24:08;;;;;;;1.90;1.60;;;;;;;18.93;71.16;98805.22;126819;1295;638336;-64
2023/08/01 18:28:10;;;;;;;1.70;1.40;;;;;;;18.85;71.54;98812.61;128097;1297;128695;-66
2023/08/01 18:32:07;;;;;;;7.40;1.50;;;;;;;18.77;71.78;98822.64;127940;1280;114966;-66
2023/08/01 18:36:10;;;;;;;4.00;1.90;;;;;;;18.70;72.15;98829.91;123633;1290;5450993;-68
2023/08/01 18:40:14;;;;;;;3.80;1.70;;;;;;;18.60;72.28;98846.06;127669;1282;114942;-66
2023/08/01 18:47:54;;;;;;;;;;;;;;;;;;;;;
2023/08/01 18:51:56;;;;;;;2.00;1.60;;;;;;;18.32;73.42;98860.71;125547;1305;127937;-68
2023/08/01 18:55:57;;;;;;;2.80;1.70;;;;;;;18.23;73.48;98857.89;124760;1314;115518;-66
2023/08/01 19:04:17;;;;;;;3.50;2.10;;;;;;;18.07;73.88;98859.46;125976;1297;636881;-67
2023/08/01 19:08:20;;;;;;;3.20;1.60;;;;;;;17.97;74.33;98865.79;127609;1284;128848;-64
2023/08/01 19:12:23;;;;;;;2.30;1.60;;;;;;;17.88;74.61;98861.44;126658;1295;115079;-68
2023/08/01 19:16:30;;;;;;;5.20;1.80;;;;;;;17.78;74.68;98866.11;122217;1298;5464326;-66
2023/08/01 19:20:31;;;;;;;3.90;1.80;;;;;;;17.70;75.25;98875.58;125689;1305;114854;-66
2023/08/01 19:24:22;;;;;;;;;;;;;;;;;;;;;
2023/08/01 19:32:26;;;;;;;2.80;1.80;;;;;;;17.50;75.77;98888.23;126390;1295;636128;-67
2023/08/01 19:36:29;;;;;;;2.20;1.70;;;;;;;17.36;75.96;98890.73;127827;1281;129822;-68
2023/08/01 19:40:35;;;;;;;2.60;2.20;;;;;;;17.21;76.19;98889.27;126779;1293;115524;-68
2023/08/01 19:44:27;;;;;;;2.60;1.80;;;;;;;17.10;76.50;98890.40;121923;1299;5458316;-68
2023/08/01 19:48:21;;;;;;;;;;;;;;;;;;;;;
2023/08/01 19:52:23;;;;;;;3.70;2.90;;;;;;;16.90;77.13;98906.73;125014;1308;114977;-69
2023/08/01 20:00:58;;;;;;;3.20;2.20;;;;;;;16.76;77.74;98908.52;126066;1298;638363;-68
2023/08/01 20:05:01;;;;;;;9.70;2.70;;;;;;;16.67;78.06;98907.23;128073;1301;128779;-67
2023/08/01 20:17:05;;;;;;;3.40;2.40;;;;;;;16.43;78.67;98912.27;124895;1314;114810;-67
2023/08/01 20:21:05;;;;;;;;;;;;;;;;;;;;;
2023/08/01 20:29:30;;;;;;;4.90;2.30;;;;;;;16.19;79.31;98915.41;126220;1316;636369;-66
2023/08/01 20:33:34;;;;;;;2.30;2.10;;;;;;;16.09;79.58;98927.88;128522;1281;128584;-68
2023/08/01 20:37:36;;;;;;;5.70;2.60;;;;;;;16.00;79.68;98928.33;127710;1295;115293;-67
2023/08/01 20:45:34;;;;;;;6.50;2.60;;;;;;;15.83;80.22;98949.70;126034;1301;114972;-66
2023/08/01 20:49:35;;;;;;;2.20;2.00;;;;;;;15.76;80.20;98954.83;125503;1323;114817;-70
2023/08/01 20:53:37;;;;;;;3.50;2.30;;;;;;;15.70;80.59;98957.87;124579;1313;115642;-68
2023/08/01 21:05:53;;;;;;;6.10;3.20;;;;;;;15.59;81.44;98961.23;129576;1265;128856;-67
2023/08/01 21:09:56;;;;;;;5.40;2.20;;;;;;;15.58;81.71;98962.07;129181;1272;115415;-67
2023/08/01 21:18:07;;;;;;;3.20;2.80;;;;;;;15.58;82.28;98972.17;125622;1304;114982;-68
2023/08/01 21:22:09;;;;;;;8.70;2.70;;;;;;;15.59;82.59;98965.06;125668;1318;114786;-67
2023/08/01 21:30:32;;;;;;;4.90;2.80;;;;;;;15.62;83.13;98959.76;126429;1299;635780;-69
2023/08/01 21:34:33;;;;;;;;;;;;;;;;;;;;;
2023/08/01 21:42:44;;;;;;;5.00;3.00;;;;;;;15.54;83.37;98965.84;122698;1293;5478503;-69
2023/08/01 21:55:10;;;;;;;4.50;3.80;;;;;;;15.46;83.58;98983.70;126306;1295;635900;-68
2023/08/01 21:59:15;;;;;;;4.70;2.80;;;;;;;15.39;83.80;98989.70;127752;1304;128884;-67
2023/08/01 22:03:16;;;;;;;4.20;3.10;;;;;;;15.32;83.91;98988.70;127639;1281;115457;-69
2023/08/01 22:07:19;;;;;;;4.60;3.50;;;;;;;15.25;83.81;98993.09;122761;1295;5457440;-68
2023/08/01 22:11:19;;;;;;;5.70;3.20;;;;;;;15.17;83.89;98999.38;125774;1297;114897;-65
2023/08/01 22:19:22;;;;;;;4.20;3.10;;;;;;;15.01;83.80;98999.02;124467;1310;127872;-67
2023/08/01 22:23:23;;;;;;;5.50;3.80;;;;;;;14.93;84.03;99002.95;124273;1310;115283;-67
2023/08/01 22:31:47;;;;;;;7.60;3.60;;;;;;;14.82;84.20;99008.95;126443;1296;636114;-68
2023/08/01 22:35:50;;;;;;;5.90;3.20;;;;;;;14.75;84.34;99014.98;127782;1280;128650;-69
2023/08/01 22:39:53;;;;;;;8.10;3.20;;;;;;;14.68;84.35;99010.48;127381;1289;115253;-70
2023/08/01 22:44:00;;;;;;;11.30;3.70;;;;;;;14.62;84.56;99006.38;123280;1307;5522734;-69
2023/08/01 22:48:02;;;;;;;5.40;3.00;;;;;;;14.55;84.52;99002.07;126224;1312;114960;-69
2023/08/01 22:52:03;;;;;;;4.40;2.90;;;;;;;14.50;84.78;98997.71;125734;1304;114895;-65
2023/08/01 22:56:05;;;;;;;3.40;3.10;;;;;;;14.44;84.68;99005.06;125009;1310;114897;-68
2023/08/01 23:00:06;;;;;;;5.40;3.40;;;;;;;14.38;85.07;99007.84;124298;1324;129743;-66
2023/08/01 23:12:40;;;;;;;4.10;3.20;;;;;;;14.23;85.29;99023.21;128508;1296;128876;-65
2023/08/01 23:16:42;;;;;;;9.80;2.90;;;;;;;14.17;85.29;99028.67;129178;1274;114862;-68
2023/08/01 23:20:44;;;;;;;18.30;3.90;;;;;;;14.11;85.13;99032.08;124106;1283;5417855;-67
2023/08/01 23:24:47;;;;;;;6.30;3.00;;;;;;;14.05;85.30;99037.30;126167;1293;114953;-67
2023/08/01 23:28:47;;;;;;;8.00;3.60;;;;;;;13.99;85.52;99036.85;125983;1299;115006;-65
2023/08/01 23:37:14;;;;;;;7.30;3.80;;;;;;;13.92;85.41;99038.16;125602;1318;636045;-66
2023/08/01 23:49:27;;;;;;;5.00;3.60;;;;;;;13.74;85.84;99058.70;122804;1300;5443329;-67
2023/08/01 23:53:28;;;;;;;9.10;3.40;;;;;;;13.68;86.01;99061.66;125100;1311;114926;-65
